sensor_id;sensor_type;location;lat;lon;timestamp;P1;durP1;ratioP1;P2;durP2;ratioP2
20383;SDS011;46458;50.966;7.002;2022-10-26T00:01:47;2.37;;;1.37;;
20383;SDS011;46458;50.966;7.002;2022-10-26T00:04:16;3.13;;;1.80;;
20383;SDS011;46458;50.966;7.002;2022-10-26T00:06:45;2.60;;;1.47;;
20383;SDS011;46458;50.966;7.002;2022-10-26T00:09:16;9.07;;;2.00;;
20383;SDS011;46458;50.966;7.002;2022-10-26T00:11:45;3.20;;;1.80;;
20383;SDS011;46458;50.966;7.002;2022-10-26T00:14:16;6.00;;;1.93;;
20383;SDS011;46458;50.966;7.002;2022-10-26T00:16:44;2.50;;;1.50;;
20383;SDS011;46458;50.966;7.002;2022-10-26T00:19:13;3.03;;;1.60;;
20383;SDS011;46458;50.966;7.002;2022-10-26T00:21:42;3.07;;;1.40;;
20383;SDS011;46458;50.966;7.002;2022-10-26T00:24:11;5.93;;;1.53;;
20383;SDS011;46458;50.966;7.002;2022-10-26T00:26:42;2.77;;;1.90;;
20383;SDS011;46458;50.966;7.002;2022-10-26T00:29:11;2.90;;;1.50;;
20383;SDS011;46458;50.966;7.002;2022-10-26T00:31:43;4.57;;;1.60;;
20383;SDS011;46458;50.966;7.002;2022-10-26T00:34:14;3.47;;;1.50;;
20383;SDS011;46458;50.966;7.002;2022-10-26T00:36:45;3.87;;;1.50;;
20383;SDS011;46458;50.966;7.002;2022-10-26T00:39:14;3.77;;;1.43;;
20383;SDS011;46458;50.966;7.002;2022-10-26T00:41:47;3.27;;;1.40;;
20383;SDS011;46458;50.966;7.002;2022-10-26T00:47:30;4.10;;;1.37;;
20383;SDS011;46458;50.966;7.002;2022-10-26T00:50:05;2.87;;;1.70;;
20383;SDS011;46458;50.966;7.002;2022-10-26T00:52:36;3.70;;;1.43;;
20383;SDS011;46458;50.966;7.002;2022-10-26T00:55:06;3.03;;;1.50;;
20383;SDS011;46458;50.966;7.002;2022-10-26T00:57:38;4.83;;;1.80;;
20383;SDS011;46458;50.966;7.002;2022-10-26T01:00:08;4.63;;;1.50;;
20383;SDS011;46458;50.966;7.002;2022-10-26T01:02:37;1.93;;;1.60;;
20383;SDS011;46458;50.966;7.002;2022-10-26T01:05:06;3.93;;;1.57;;
20383;SDS011;46458;50.966;7.002;2022-10-26T01:07:36;4.17;;;1.40;;
20383;SDS011;46458;50.966;7.002;2022-10-26T01:10:06;3.90;;;1.60;;
20383;SDS011;46458;50.966;7.002;2022-10-26T01:12:40;4.20;;;1.73;;
20383;SDS011;46458;50.966;7.002;2022-10-26T01:15:10;5.23;;;1.63;;
20383;SDS011;46458;50.966;7.002;2022-10-26T01:17:50;4.13;;;1.60;;
20383;SDS011;46458;50.966;7.002;2022-10-26T01:20:33;2.40;;;1.40;;
20383;SDS011;46458;50.966;7.002;2022-10-26T01:23:15;5.30;;;2.00;;
20383;SDS011;46458;50.966;7.002;2022-10-26T01:26:12;5.03;;;1.70;;
20383;SDS011;46458;50.966;7.002;2022-10-26T01:29:06;5.67;;;1.83;;
20383;SDS011;46458;50.966;7.002;2022-10-26T01:31:51;4.37;;;1.73;;
20383;SDS011;46458;50.966;7.002;2022-10-26T01:34:27;4.07;;;1.77;;
20383;SDS011;46458;50.966;7.002;2022-10-26T01:37:03;5.27;;;1.73;;
20383;SDS011;46458;50.966;7.002;2022-10-26T01:39:38;3.83;;;1.47;;
20383;SDS011;46458;50.966;7.002;2022-10-26T01:42:12;2.90;;;1.53;;
20383;SDS011;46458;50.966;7.002;2022-10-26T01:44:44;4.80;;;1.90;;
20383;SDS011;46458;50.966;7.002;2022-10-26T01:47:18;3.40;;;1.67;;
20383;SDS011;46458;50.966;7.002;2022-10-26T01:49:50;2.13;;;1.47;;
20383;SDS011;46458;50.966;7.002;2022-10-26T01:52:25;2.77;;;1.33;;
20383;SDS011;46458;50.966;7.002;2022-10-26T01:54:59;3.97;;;2.07;;
20383;SDS011;46458;50.966;7.002;2022-10-26T01:57:28;5.83;;;1.43;;
20383;SDS011;46458;50.966;7.002;2022-10-26T02:00:05;5.33;;;1.60;;
20383;SDS011;46458;50.966;7.002;2022-10-26T02:02:47;3.20;;;1.50;;
20383;SDS011;46458;50.966;7.002;2022-10-26T02:05:35;2.40;;;1.33;;
20383;SDS011;46458;50.966;7.002;2022-10-26T02:08:18;2.47;;;1.50;;
20383;SDS011;46458;50.966;7.002;2022-10-26T02:11:08;3.63;;;1.67;;
20383;SDS011;46458;50.966;7.002;2022-10-26T02:13:45;1.90;;;1.40;;
20383;SDS011;46458;50.966;7.002;2022-10-26T02:16:18;3.90;;;1.57;;
20383;SDS011;46458;50.966;7.002;2022-10-26T02:18:57;3.07;;;1.27;;
20383;SDS011;46458;50.966;7.002;2022-10-26T02:21:30;3.53;;;1.90;;
20383;SDS011;46458;50.966;7.002;2022-10-26T02:24:04;2.63;;;1.37;;
20383;SDS011;46458;50.966;7.002;2022-10-26T02:26:38;2.77;;;1.33;;
20383;SDS011;46458;50.966;7.002;2022-10-26T02:29:10;5.23;;;1.60;;
20383;SDS011;46458;50.966;7.002;2022-10-26T02:31:46;4.27;;;1.40;;
20383;SDS011;46458;50.966;7.002;2022-10-26T02:34:20;5.00;;;1.53;;
20383;SDS011;46458;50.966;7.002;2022-10-26T02:36:54;3.40;;;1.80;;
20383;SDS011;46458;50.966;7.002;2022-10-26T02:39:25;2.03;;;1.40;;
20383;SDS011;46458;50.966;7.002;2022-10-26T02:41:58;3.13;;;1.23;;
20383;SDS011;46458;50.966;7.002;2022-10-26T02:44:30;3.97;;;1.40;;
20383;SDS011;46458;50.966;7.002;2022-10-26T02:47:03;3.10;;;1.63;;
20383;SDS011;46458;50.966;7.002;2022-10-26T02:49:34;4.40;;;1.57;;
20383;SDS011;46458;50.966;7.002;2022-10-26T02:52:05;3.27;;;1.60;;
20383;SDS011;46458;50.966;7.002;2022-10-26T02:54:41;8.30;;;1.40;;
20383;SDS011;46458;50.966;7.002;2022-10-26T02:57:18;4.90;;;1.73;;
20383;SDS011;46458;50.966;7.002;2022-10-26T02:59:52;4.37;;;1.67;;
20383;SDS011;46458;50.966;7.002;2022-10-26T03:02:22;4.03;;;1.60;;
20383;SDS011;46458;50.966;7.002;2022-10-26T03:04:59;3.00;;;1.50;;
20383;SDS011;46458;50.966;7.002;2022-10-26T03:07:36;4.33;;;1.67;;
20383;SDS011;46458;50.966;7.002;2022-10-26T03:10:05;6.37;;;1.63;;
20383;SDS011;46458;50.966;7.002;2022-10-26T03:12:35;3.57;;;1.60;;
20383;SDS011;46458;50.966;7.002;2022-10-26T03:15:04;4.60;;;1.70;;
20383;SDS011;46458;50.966;7.002;2022-10-26T03:17:36;2.80;;;1.60;;
20383;SDS011;46458;50.966;7.002;2022-10-26T03:20:09;5.77;;;2.10;;
20383;SDS011;46458;50.966;7.002;2022-10-26T03:22:39;5.07;;;1.47;;
20383;SDS011;46458;50.966;7.002;2022-10-26T03:25:10;4.57;;;1.43;;
20383;SDS011;46458;50.966;7.002;2022-10-26T03:27:39;3.83;;;1.80;;
20383;SDS011;46458;50.966;7.002;2022-10-26T03:30:08;8.27;;;1.73;;
20383;SDS011;46458;50.966;7.002;2022-10-26T03:32:38;2.30;;;1.60;;
20383;SDS011;46458;50.966;7.002;2022-10-26T03:35:12;2.90;;;1.53;;
20383;SDS011;46458;50.966;7.002;2022-10-26T03:37:40;4.03;;;1.67;;
20383;SDS011;46458;50.966;7.002;2022-10-26T03:40:12;3.13;;;2.03;;
20383;SDS011;46458;50.966;7.002;2022-10-26T03:42:41;4.17;;;1.53;;
20383;SDS011;46458;50.966;7.002;2022-10-26T03:45:10;4.00;;;1.70;;
20383;SDS011;46458;50.966;7.002;2022-10-26T03:47:42;2.83;;;1.60;;
20383;SDS011;46458;50.966;7.002;2022-10-26T03:50:15;3.00;;;1.30;;
20383;SDS011;46458;50.966;7.002;2022-10-26T03:52:47;3.40;;;1.33;;
20383;SDS011;46458;50.966;7.002;2022-10-26T03:55:17;3.77;;;1.50;;
20383;SDS011;46458;50.966;7.002;2022-10-26T03:57:46;4.83;;;1.97;;
20383;SDS011;46458;50.966;7.002;2022-10-26T04:00:15;2.40;;;1.73;;
20383;SDS011;46458;50.966;7.002;2022-10-26T04:02:45;3.30;;;1.50;;
20383;SDS011;46458;50.966;7.002;2022-10-26T04:05:26;2.43;;;1.67;;
20383;SDS011;46458;50.966;7.002;2022-10-26T04:07:56;4.87;;;1.93;;
20383;SDS011;46458;50.966;7.002;2022-10-26T04:10:30;3.37;;;1.57;;
20383;SDS011;46458;50.966;7.002;2022-10-26T04:12:59;3.03;;;1.47;;
20383;SDS011;46458;50.966;7.002;2022-10-26T04:15:28;4.97;;;2.57;;
20383;SDS011;46458;50.966;7.002;2022-10-26T04:17:57;4.10;;;1.50;;
20383;SDS011;46458;50.966;7.002;2022-10-26T04:20:49;3.83;;;1.90;;
20383;SDS011;46458;50.966;7.002;2022-10-26T04:23:18;6.17;;;1.87;;
20383;SDS011;46458;50.966;7.002;2022-10-26T04:25:47;2.27;;;1.77;;
20383;SDS011;46458;50.966;7.002;2022-10-26T04:28:16;4.47;;;1.50;;
20383;SDS011;46458;50.966;7.002;2022-10-26T04:30:46;3.60;;;1.90;;
20383;SDS011;46458;50.966;7.002;2022-10-26T04:33:15;3.90;;;1.80;;
20383;SDS011;46458;50.966;7.002;2022-10-26T04:35:43;6.27;;;1.87;;
20383;SDS011;46458;50.966;7.002;2022-10-26T04:38:17;4.47;;;1.87;;
20383;SDS011;46458;50.966;7.002;2022-10-26T04:40:46;7.93;;;2.10;;
20383;SDS011;46458;50.966;7.002;2022-10-26T04:43:18;7.90;;;2.03;;
20383;SDS011;46458;50.966;7.002;2022-10-26T04:45:49;4.53;;;2.07;;
20383;SDS011;46458;50.966;7.002;2022-10-26T04:48:22;3.23;;;1.83;;
20383;SDS011;46458;50.966;7.002;2022-10-26T04:50:51;2.90;;;1.87;;
20383;SDS011;46458;50.966;7.002;2022-10-26T04:53:25;4.10;;;2.17;;
20383;SDS011;46458;50.966;7.002;2022-10-26T04:55:57;5.93;;;1.90;;
20383;SDS011;46458;50.966;7.002;2022-10-26T04:58:27;6.33;;;2.33;;
20383;SDS011;46458;50.966;7.002;2022-10-26T05:00:55;3.23;;;2.07;;
20383;SDS011;46458;50.966;7.002;2022-10-26T05:03:24;5.47;;;2.03;;
20383;SDS011;46458;50.966;7.002;2022-10-26T05:05:56;5.73;;;2.07;;
20383;SDS011;46458;50.966;7.002;2022-10-26T05:08:28;4.67;;;1.90;;
20383;SDS011;46458;50.966;7.002;2022-10-26T05:10:57;2.97;;;1.80;;
20383;SDS011;46458;50.966;7.002;2022-10-26T05:13:26;7.60;;;1.73;;
20383;SDS011;46458;50.966;7.002;2022-10-26T05:15:54;5.07;;;1.60;;
20383;SDS011;46458;50.966;7.002;2022-10-26T05:18:23;3.80;;;1.60;;
20383;SDS011;46458;50.966;7.002;2022-10-26T05:20:52;8.70;;;2.20;;
20383;SDS011;46458;50.966;7.002;2022-10-26T05:23:21;3.43;;;1.50;;
20383;SDS011;46458;50.966;7.002;2022-10-26T05:25:53;3.50;;;1.40;;
20383;SDS011;46458;50.966;7.002;2022-10-26T05:28:23;4.77;;;1.97;;
20383;SDS011;46458;50.966;7.002;2022-10-26T05:30:52;3.10;;;1.53;;
20383;SDS011;46458;50.966;7.002;2022-10-26T05:33:21;3.80;;;1.90;;
20383;SDS011;46458;50.966;7.002;2022-10-26T05:35:52;5.07;;;2.40;;
20383;SDS011;46458;50.966;7.002;2022-10-26T05:38:21;5.00;;;1.73;;
20383;SDS011;46458;50.966;7.002;2022-10-26T05:40:53;3.43;;;1.73;;
20383;SDS011;46458;50.966;7.002;2022-10-26T05:43:23;4.03;;;1.67;;
20383;SDS011;46458;50.966;7.002;2022-10-26T05:45:52;4.13;;;2.17;;
20383;SDS011;46458;50.966;7.002;2022-10-26T05:48:21;4.43;;;1.70;;
20383;SDS011;46458;50.966;7.002;2022-10-26T05:50:50;5.50;;;1.90;;
20383;SDS011;46458;50.966;7.002;2022-10-26T05:53:19;5.20;;;1.83;;
20383;SDS011;46458;50.966;7.002;2022-10-26T05:55:48;5.93;;;2.20;;
20383;SDS011;46458;50.966;7.002;2022-10-26T05:58:20;3.60;;;2.10;;
20383;SDS011;46458;50.966;7.002;2022-10-26T06:00:53;3.50;;;2.10;;
20383;SDS011;46458;50.966;7.002;2022-10-26T06:03:34;4.33;;;1.77;;
20383;SDS011;46458;50.966;7.002;2022-10-26T06:06:16;5.37;;;1.73;;
20383;SDS011;46458;50.966;7.002;2022-10-26T06:08:45;4.77;;;1.63;;
20383;SDS011;46458;50.966;7.002;2022-10-26T06:11:15;6.13;;;2.13;;
20383;SDS011;46458;50.966;7.002;2022-10-26T06:13:47;5.10;;;1.83;;
20383;SDS011;46458;50.966;7.002;2022-10-26T06:16:24;5.60;;;1.97;;
20383;SDS011;46458;50.966;7.002;2022-10-26T06:19:05;3.90;;;1.90;;
20383;SDS011;46458;50.966;7.002;2022-10-26T06:21:47;5.93;;;2.17;;
20383;SDS011;46458;50.966;7.002;2022-10-26T06:24:28;4.70;;;2.10;;
20383;SDS011;46458;50.966;7.002;2022-10-26T06:27:05;3.50;;;2.07;;
20383;SDS011;46458;50.966;7.002;2022-10-26T06:29:52;4.67;;;1.93;;
20383;SDS011;46458;50.966;7.002;2022-10-26T06:32:29;4.93;;;2.17;;
20383;SDS011;46458;50.966;7.002;2022-10-26T06:34:59;2.97;;;1.73;;
20383;SDS011;46458;50.966;7.002;2022-10-26T06:37:38;6.27;;;1.97;;
20383;SDS011;46458;50.966;7.002;2022-10-26T06:40:10;4.63;;;2.07;;
20383;SDS011;46458;50.966;7.002;2022-10-26T06:42:41;6.20;;;2.20;;
20383;SDS011;46458;50.966;7.002;2022-10-26T06:45:14;4.47;;;1.80;;
20383;SDS011;46458;50.966;7.002;2022-10-26T06:47:45;4.60;;;2.00;;
20383;SDS011;46458;50.966;7.002;2022-10-26T06:50:28;3.27;;;1.93;;
20383;SDS011;46458;50.966;7.002;2022-10-26T06:53:04;6.47;;;2.17;;
20383;SDS011;46458;50.966;7.002;2022-10-26T06:55:43;5.30;;;1.93;;
20383;SDS011;46458;50.966;7.002;2022-10-26T06:58:15;5.57;;;2.13;;
20383;SDS011;46458;50.966;7.002;2022-10-26T07:00:49;8.40;;;2.53;;
20383;SDS011;46458;50.966;7.002;2022-10-26T07:03:20;11.87;;;2.50;;
20383;SDS011;46458;50.966;7.002;2022-10-26T07:05:49;6.30;;;2.83;;
20383;SDS011;46458;50.966;7.002;2022-10-26T07:08:18;4.17;;;2.00;;
20383;SDS011;46458;50.966;7.002;2022-10-26T07:10:47;4.67;;;2.10;;
20383;SDS011;46458;50.966;7.002;2022-10-26T07:13:18;5.23;;;2.63;;
20383;SDS011;46458;50.966;7.002;2022-10-26T07:15:50;2.20;;;1.73;;
20383;SDS011;46458;50.966;7.002;2022-10-26T07:18:18;4.43;;;2.20;;
20383;SDS011;46458;50.966;7.002;2022-10-26T07:20:47;6.43;;;2.43;;
20383;SDS011;46458;50.966;7.002;2022-10-26T07:23:16;4.07;;;2.47;;
20383;SDS011;46458;50.966;7.002;2022-10-26T07:25:47;4.30;;;2.40;;
20383;SDS011;46458;50.966;7.002;2022-10-26T07:28:16;6.57;;;2.60;;
20383;SDS011;46458;50.966;7.002;2022-10-26T07:30:44;4.13;;;2.30;;
20383;SDS011;46458;50.966;7.002;2022-10-26T07:33:16;4.67;;;2.10;;
20383;SDS011;46458;50.966;7.002;2022-10-26T07:35:45;3.83;;;1.90;;
20383;SDS011;46458;50.966;7.002;2022-10-26T07:38:14;6.37;;;2.13;;
20383;SDS011;46458;50.966;7.002;2022-10-26T07:40:43;2.60;;;1.90;;
20383;SDS011;46458;50.966;7.002;2022-10-26T07:43:21;7.27;;;2.63;;
20383;SDS011;46458;50.966;7.002;2022-10-26T07:45:49;3.67;;;2.20;;
20383;SDS011;46458;50.966;7.002;2022-10-26T07:48:24;7.13;;;2.50;;
20383;SDS011;46458;50.966;7.002;2022-10-26T07:50:53;5.27;;;2.80;;
20383;SDS011;46458;50.966;7.002;2022-10-26T07:53:22;5.47;;;2.73;;
20383;SDS011;46458;50.966;7.002;2022-10-26T07:55:53;10.60;;;2.83;;
20383;SDS011;46458;50.966;7.002;2022-10-26T07:58:28;4.20;;;2.27;;
20383;SDS011;46458;50.966;7.002;2022-10-26T08:00:57;5.93;;;2.20;;
20383;SDS011;46458;50.966;7.002;2022-10-26T08:03:34;4.93;;;2.30;;
20383;SDS011;46458;50.966;7.002;2022-10-26T08:06:03;5.43;;;1.97;;
20383;SDS011;46458;50.966;7.002;2022-10-26T08:08:33;3.63;;;2.33;;
20383;SDS011;46458;50.966;7.002;2022-10-26T08:11:03;5.77;;;2.70;;
20383;SDS011;46458;50.966;7.002;2022-10-26T08:13:32;4.47;;;2.17;;
20383;SDS011;46458;50.966;7.002;2022-10-26T08:16:02;5.43;;;2.43;;
20383;SDS011;46458;50.966;7.002;2022-10-26T08:18:35;4.77;;;2.07;;
20383;SDS011;46458;50.966;7.002;2022-10-26T08:21:05;3.27;;;2.23;;
20383;SDS011;46458;50.966;7.002;2022-10-26T08:23:36;3.50;;;2.43;;
20383;SDS011;46458;50.966;7.002;2022-10-26T08:26:05;6.30;;;2.53;;
20383;SDS011;46458;50.966;7.002;2022-10-26T08:28:36;4.03;;;2.57;;
20383;SDS011;46458;50.966;7.002;2022-10-26T08:31:05;4.77;;;2.50;;
20383;SDS011;46458;50.966;7.002;2022-10-26T08:33:37;6.60;;;2.53;;
20383;SDS011;46458;50.966;7.002;2022-10-26T08:36:07;3.93;;;2.20;;
20383;SDS011;46458;50.966;7.002;2022-10-26T08:38:36;5.73;;;2.77;;
20383;SDS011;46458;50.966;7.002;2022-10-26T08:41:06;5.70;;;2.43;;
20383;SDS011;46458;50.966;7.002;2022-10-26T08:43:39;9.25;;;2.35;;
20383;SDS011;46458;50.966;7.002;2022-10-26T08:46:10;3.28;;;2.17;;
20383;SDS011;46458;50.966;7.002;2022-10-26T08:48:45;5.00;;;3.72;;
20383;SDS011;46458;50.966;7.002;2022-10-26T08:51:21;6.53;;;2.47;;
20383;SDS011;46458;50.966;7.002;2022-10-26T08:53:55;8.18;;;2.20;;
20383;SDS011;46458;50.966;7.002;2022-10-26T08:56:32;5.68;;;2.38;;
20383;SDS011;46458;50.966;7.002;2022-10-26T08:59:09;4.75;;;2.10;;
20383;SDS011;46458;50.966;7.002;2022-10-26T09:01:45;4.30;;;2.33;;
20383;SDS011;46458;50.966;7.002;2022-10-26T09:04:20;2.78;;;1.70;;
20383;SDS011;46458;50.966;7.002;2022-10-26T09:06:55;4.50;;;1.77;;
20383;SDS011;46458;50.966;7.002;2022-10-26T09:09:35;3.80;;;2.13;;
20383;SDS011;46458;50.966;7.002;2022-10-26T09:12:14;4.97;;;2.22;;
20383;SDS011;46458;50.966;7.002;2022-10-26T09:14:53;4.95;;;2.13;;
20383;SDS011;46458;50.966;7.002;2022-10-26T09:17:32;4.88;;;2.35;;
20383;SDS011;46458;50.966;7.002;2022-10-26T09:23:14;7.78;;;2.35;;
20383;SDS011;46458;50.966;7.002;2022-10-26T09:26:10;6.75;;;1.88;;
20383;SDS011;46458;50.966;7.002;2022-10-26T09:28:41;6.32;;;2.10;;
20383;SDS011;46458;50.966;7.002;2022-10-26T09:31:15;3.22;;;1.98;;
20383;SDS011;46458;50.966;7.002;2022-10-26T09:33:45;5.22;;;1.65;;
20383;SDS011;46458;50.966;7.002;2022-10-26T09:36:16;6.88;;;2.22;;
20383;SDS011;46458;50.966;7.002;2022-10-26T09:38:52;9.82;;;2.15;;
20383;SDS011;46458;50.966;7.002;2022-10-26T09:41:25;3.67;;;2.20;;
20383;SDS011;46458;50.966;7.002;2022-10-26T09:44:04;3.78;;;2.20;;
20383;SDS011;46458;50.966;7.002;2022-10-26T09:46:41;4.93;;;2.00;;
20383;SDS011;46458;50.966;7.002;2022-10-26T09:49:15;5.75;;;2.08;;
20383;SDS011;46458;50.966;7.002;2022-10-26T09:51:45;3.95;;;2.00;;
20383;SDS011;46458;50.966;7.002;2022-10-26T09:54:18;4.72;;;2.10;;
20383;SDS011;46458;50.966;7.002;2022-10-26T09:56:49;7.47;;;2.08;;
20383;SDS011;46458;50.966;7.002;2022-10-26T09:59:20;2.80;;;1.80;;
20383;SDS011;46458;50.966;7.002;2022-10-26T10:01:51;3.40;;;1.90;;
20383;SDS011;46458;50.966;7.002;2022-10-26T10:04:20;3.22;;;2.20;;
20383;SDS011;46458;50.966;7.002;2022-10-26T10:06:50;2.50;;;1.83;;
20383;SDS011;46458;50.966;7.002;2022-10-26T10:09:42;3.58;;;2.30;;
20383;SDS011;46458;50.966;7.002;2022-10-26T10:12:17;3.33;;;2.00;;
20383;SDS011;46458;50.966;7.002;2022-10-26T10:14:54;3.90;;;2.30;;
20383;SDS011;46458;50.966;7.002;2022-10-26T10:17:24;4.63;;;1.83;;
20383;SDS011;46458;50.966;7.002;2022-10-26T10:19:53;4.03;;;1.92;;
20383;SDS011;46458;50.966;7.002;2022-10-26T10:22:37;7.57;;;2.15;;
20383;SDS011;46458;50.966;7.002;2022-10-26T10:25:30;4.90;;;2.28;;
20383;SDS011;46458;50.966;7.002;2022-10-26T10:28:01;4.20;;;2.72;;
20383;SDS011;46458;50.966;7.002;2022-10-26T10:30:51;6.60;;;2.08;;
20383;SDS011;46458;50.966;7.002;2022-10-26T10:33:30;4.50;;;2.28;;
20383;SDS011;46458;50.966;7.002;2022-10-26T10:36:01;4.30;;;2.22;;
20383;SDS011;46458;50.966;7.002;2022-10-26T10:38:37;6.40;;;2.60;;
20383;SDS011;46458;50.966;7.002;2022-10-26T10:41:17;3.60;;;1.90;;
20383;SDS011;46458;50.966;7.002;2022-10-26T10:43:51;2.55;;;2.05;;
20383;SDS011;46458;50.966;7.002;2022-10-26T10:46:23;3.95;;;1.90;;
20383;SDS011;46458;50.966;7.002;2022-10-26T10:48:59;3.90;;;2.05;;
20383;SDS011;46458;50.966;7.002;2022-10-26T10:51:35;7.30;;;2.20;;
20383;SDS011;46458;50.966;7.002;2022-10-26T10:54:14;6.78;;;2.10;;
20383;SDS011;46458;50.966;7.002;2022-10-26T10:56:53;4.30;;;2.42;;
20383;SDS011;46458;50.966;7.002;2022-10-26T10:59:30;5.55;;;2.35;;
20383;SDS011;46458;50.966;7.002;2022-10-26T11:05:21;6.53;;;2.30;;
20383;SDS011;46458;50.966;7.002;2022-10-26T11:08:14;4.50;;;2.00;;
20383;SDS011;46458;50.966;7.002;2022-10-26T11:10:49;7.20;;;2.08;;
20383;SDS011;46458;50.966;7.002;2022-10-26T11:13:30;9.07;;;2.58;;
20383;SDS011;46458;50.966;7.002;2022-10-26T11:16:11;4.70;;;2.38;;
20383;SDS011;46458;50.966;7.002;2022-10-26T11:18:47;3.47;;;2.00;;
20383;SDS011;46458;50.966;7.002;2022-10-26T11:21:22;4.90;;;2.33;;
20383;SDS011;46458;50.966;7.002;2022-10-26T11:24:05;4.40;;;2.20;;
20383;SDS011;46458;50.966;7.002;2022-10-26T11:26:43;3.80;;;1.77;;
20383;SDS011;46458;50.966;7.002;2022-10-26T11:29:22;3.20;;;2.22;;
20383;SDS011;46458;50.966;7.002;2022-10-26T11:31:56;7.25;;;2.13;;
20383;SDS011;46458;50.966;7.002;2022-10-26T11:34:32;4.50;;;1.70;;
20383;SDS011;46458;50.966;7.002;2022-10-26T11:37:07;4.50;;;2.22;;
20383;SDS011;46458;50.966;7.002;2022-10-26T11:39:42;7.00;;;1.95;;
20383;SDS011;46458;50.966;7.002;2022-10-26T11:42:16;4.70;;;1.92;;
20383;SDS011;46458;50.966;7.002;2022-10-26T11:44:58;3.72;;;1.98;;
20383;SDS011;46458;50.966;7.002;2022-10-26T11:47:36;6.18;;;2.28;;
20383;SDS011;46458;50.966;7.002;2022-10-26T11:50:12;7.97;;;2.00;;
20383;SDS011;46458;50.966;7.002;2022-10-26T11:52:46;3.97;;;1.67;;
20383;SDS011;46458;50.966;7.002;2022-10-26T11:55:17;4.13;;;1.63;;
20383;SDS011;46458;50.966;7.002;2022-10-26T11:57:48;3.33;;;1.42;;
20383;SDS011;46458;50.966;7.002;2022-10-26T12:00:22;2.50;;;1.48;;
20383;SDS011;46458;50.966;7.002;2022-10-26T12:02:52;1.88;;;1.00;;
20383;SDS011;46458;50.966;7.002;2022-10-26T12:05:31;3.00;;;1.83;;
20383;SDS011;46458;50.966;7.002;2022-10-26T12:08:02;2.08;;;1.60;;
20383;SDS011;46458;50.966;7.002;2022-10-26T12:10:38;5.95;;;1.65;;
20383;SDS011;46458;50.966;7.002;2022-10-26T12:13:23;3.03;;;1.15;;
20383;SDS011;46458;50.966;7.002;2022-10-26T12:16:18;2.45;;;1.00;;
20383;SDS011;46458;50.966;7.002;2022-10-26T12:18:56;3.00;;;1.30;;
20383;SDS011;46458;50.966;7.002;2022-10-26T12:21:34;1.67;;;0.98;;
20383;SDS011;46458;50.966;7.002;2022-10-26T12:27:00;1.70;;;0.75;;
20383;SDS011;46458;50.966;7.002;2022-10-26T12:29:39;2.00;;;0.90;;
20383;SDS011;46458;50.966;7.002;2022-10-26T12:41:17;1.90;;;0.80;;
20383;SDS011;46458;50.966;7.002;2022-10-26T12:46:59;1.38;;;0.60;;
20383;SDS011;46458;50.966;7.002;2022-10-26T12:52:37;1.30;;;0.60;;
20383;SDS011;46458;50.966;7.002;2022-10-26T12:58:35;2.53;;;0.98;;
20383;SDS011;46458;50.966;7.002;2022-10-26T13:01:18;1.90;;;0.77;;
20383;SDS011;46458;50.966;7.002;2022-10-26T13:10:04;1.08;;;0.70;;
20383;SDS011;46458;50.966;7.002;2022-10-26T13:12:46;1.52;;;0.80;;
20383;SDS011;46458;50.966;7.002;2022-10-26T13:15:18;2.15;;;0.70;;
20383;SDS011;46458;50.966;7.002;2022-10-26T13:17:54;2.08;;;0.60;;
20383;SDS011;46458;50.966;7.002;2022-10-26T13:20:27;2.08;;;0.70;;
20383;SDS011;46458;50.966;7.002;2022-10-26T13:22:57;1.98;;;0.65;;
20383;SDS011;46458;50.966;7.002;2022-10-26T13:25:29;1.25;;;0.77;;
20383;SDS011;46458;50.966;7.002;2022-10-26T13:28:02;1.90;;;0.80;;
20383;SDS011;46458;50.966;7.002;2022-10-26T13:30:43;1.10;;;0.90;;
20383;SDS011;46458;50.966;7.002;2022-10-26T13:33:24;2.53;;;0.80;;
20383;SDS011;46458;50.966;7.002;2022-10-26T13:35:57;0.90;;;0.60;;
20383;SDS011;46458;50.966;7.002;2022-10-26T13:38:29;1.05;;;0.75;;
20383;SDS011;46458;50.966;7.002;2022-10-26T13:41:06;1.10;;;0.90;;
20383;SDS011;46458;50.966;7.002;2022-10-26T13:43:46;2.55;;;1.00;;
20383;SDS011;46458;50.966;7.002;2022-10-26T13:46:21;1.30;;;1.08;;
20383;SDS011;46458;50.966;7.002;2022-10-26T13:48:58;1.60;;;1.40;;
20383;SDS011;46458;50.966;7.002;2022-10-26T13:51:36;1.40;;;1.20;;
20383;SDS011;46458;50.966;7.002;2022-10-26T13:54:13;2.38;;;1.33;;
20383;SDS011;46458;50.966;7.002;2022-10-26T13:57:09;1.63;;;1.15;;
20383;SDS011;46458;50.966;7.002;2022-10-26T13:59:45;2.30;;;1.23;;
20383;SDS011;46458;50.966;7.002;2022-10-26T14:02:15;1.75;;;0.75;;
20383;SDS011;46458;50.966;7.002;2022-10-26T14:04:46;2.40;;;0.95;;
20383;SDS011;46458;50.966;7.002;2022-10-26T14:07:19;1.80;;;1.10;;
20383;SDS011;46458;50.966;7.002;2022-10-26T14:09:52;1.13;;;0.80;;
20383;SDS011;46458;50.966;7.002;2022-10-26T14:12:25;2.65;;;0.95;;
20383;SDS011;46458;50.966;7.002;2022-10-26T14:14:56;2.55;;;1.00;;
20383;SDS011;46458;50.966;7.002;2022-10-26T14:17:30;1.02;;;0.70;;
20383;SDS011;46458;50.966;7.002;2022-10-26T14:20:01;0.85;;;0.60;;
20383;SDS011;46458;50.966;7.002;2022-10-26T14:22:31;1.80;;;0.70;;
20383;SDS011;46458;50.966;7.002;2022-10-26T14:25:16;3.42;;;1.02;;
20383;SDS011;46458;50.966;7.002;2022-10-26T14:27:51;2.05;;;1.45;;
20383;SDS011;46458;50.966;7.002;2022-10-26T14:30:22;5.18;;;1.55;;
20383;SDS011;46458;50.966;7.002;2022-10-26T14:32:53;1.20;;;0.70;;
20383;SDS011;46458;50.966;7.002;2022-10-26T14:35:23;1.33;;;0.80;;
20383;SDS011;46458;50.966;7.002;2022-10-26T14:37:56;5.40;;;1.63;;
20383;SDS011;46458;50.966;7.002;2022-10-26T14:40:29;1.67;;;1.05;;
20383;SDS011;46458;50.966;7.002;2022-10-26T14:43:04;2.47;;;1.10;;
20383;SDS011;46458;50.966;7.002;2022-10-26T14:45:33;2.83;;;1.10;;
20383;SDS011;46458;50.966;7.002;2022-10-26T14:48:04;2.60;;;0.85;;
20383;SDS011;46458;50.966;7.002;2022-10-26T14:50:34;1.63;;;0.98;;
20383;SDS011;46458;50.966;7.002;2022-10-26T14:53:03;2.10;;;1.00;;
20383;SDS011;46458;50.966;7.002;2022-10-26T14:55:45;1.48;;;0.80;;
20383;SDS011;46458;50.966;7.002;2022-10-26T14:58:20;5.90;;;2.63;;
20383;SDS011;46458;50.966;7.002;2022-10-26T15:03:48;4.63;;;1.05;;
20383;SDS011;46458;50.966;7.002;2022-10-26T15:12:00;4.75;;;1.25;;
20383;SDS011;46458;50.966;7.002;2022-10-26T15:14:36;2.15;;;1.25;;
20383;SDS011;46458;50.966;7.002;2022-10-26T15:17:12;3.10;;;1.40;;
20383;SDS011;46458;50.966;7.002;2022-10-26T15:19:52;1.75;;;1.15;;
20383;SDS011;46458;50.966;7.002;2022-10-26T15:22:22;4.20;;;1.67;;
20383;SDS011;46458;50.966;7.002;2022-10-26T15:24:53;2.67;;;1.13;;
20383;SDS011;46458;50.966;7.002;2022-10-26T15:27:25;4.10;;;1.60;;
20383;SDS011;46458;50.966;7.002;2022-10-26T15:32:51;3.35;;;1.80;;
20383;SDS011;46458;50.966;7.002;2022-10-26T15:35:22;2.00;;;1.30;;
20383;SDS011;46458;50.966;7.002;2022-10-26T15:37:56;4.68;;;1.63;;
20383;SDS011;46458;50.966;7.002;2022-10-26T15:40:26;2.65;;;1.75;;
20383;SDS011;46458;50.966;7.002;2022-10-26T15:42:58;3.03;;;1.40;;
20383;SDS011;46458;50.966;7.002;2022-10-26T15:45:31;3.63;;;1.90;;
20383;SDS011;46458;50.966;7.002;2022-10-26T15:48:17;3.78;;;2.03;;
20383;SDS011;46458;50.966;7.002;2022-10-26T15:50:51;3.67;;;1.98;;
20383;SDS011;46458;50.966;7.002;2022-10-26T15:53:20;22.20;;;14.55;;
20383;SDS011;46458;50.966;7.002;2022-10-26T15:55:55;9.75;;;7.13;;
20383;SDS011;46458;50.966;7.002;2022-10-26T15:58:25;6.88;;;3.40;;
20383;SDS011;46458;50.966;7.002;2022-10-26T16:00:56;7.70;;;3.60;;
20383;SDS011;46458;50.966;7.002;2022-10-26T16:03:25;5.18;;;3.70;;
20383;SDS011;46458;50.966;7.002;2022-10-26T16:05:56;5.20;;;3.67;;
20383;SDS011;46458;50.966;7.002;2022-10-26T16:08:26;5.70;;;3.10;;
20383;SDS011;46458;50.966;7.002;2022-10-26T16:10:58;8.05;;;3.33;;
20383;SDS011;46458;50.966;7.002;2022-10-26T16:13:27;34.38;;;23.58;;
20383;SDS011;46458;50.966;7.002;2022-10-26T16:15:58;61.70;;;41.80;;